sensor_id;sensor_type;location;lat;lon;timestamp;temperature;humidity
44215;DHT22;29884;47.450;19.124;2023-05-16T00:00:05;14.70;99.90
44215;DHT22;29884;47.450;19.124;2023-05-16T00:02:36;14.70;99.90
44215;DHT22;29884;47.450;19.124;2023-05-16T00:05:04;14.80;99.90
44215;DHT22;29884;47.450;19.124;2023-05-16T00:07:32;14.80;99.90
44215;DHT22;29884;47.450;19.124;2023-05-16T00:09:58;14.70;99.90
44215;DHT22;29884;47.450;19.124;2023-05-16T00:12:24;14.70;99.90
44215;DHT22;29884;47.450;19.124;2023-05-16T00:14:50;14.70;99.90
44215;DHT22;29884;47.450;19.124;2023-05-16T00:17:17;14.70;99.90
44215;DHT22;29884;47.450;19.124;2023-05-16T00:19:45;14.70;99.90
44215;DHT22;29884;47.450;19.124;2023-05-16T00:22:13;14.70;99.90
44215;DHT22;29884;47.450;19.124;2023-05-16T00:24:40;14.70;99.90
44215;DHT22;29884;47.450;19.124;2023-05-16T00:27:06;14.70;99.90
44215;DHT22;29884;47.450;19.124;2023-05-16T00:29:33;14.60;99.90
44215;DHT22;29884;47.450;19.124;2023-05-16T00:31:59;14.60;99.90
44215;DHT22;29884;47.450;19.124;2023-05-16T00:34:25;14.60;99.90
44215;DHT22;29884;47.450;19.124;2023-05-16T00:36:51;14.60;99.90
44215;DHT22;29884;47.450;19.124;2023-05-16T00:39:17;14.70;99.90
44215;DHT22;29884;47.450;19.124;2023-05-16T00:41:44;14.60;99.90
44215;DHT22;29884;47.450;19.124;2023-05-16T00:44:10;14.60;99.90
44215;DHT22;29884;47.450;19.124;2023-05-16T00:46:36;14.50;99.90
44215;DHT22;29884;47.450;19.124;2023-05-16T00:49:02;14.40;99.90
44215;DHT22;29884;47.450;19.124;2023-05-16T00:51:28;14.40;99.90
44215;DHT22;29884;47.450;19.124;2023-05-16T00:53:54;14.30;99.90
44215;DHT22;29884;47.450;19.124;2023-05-16T00:56:21;14.30;99.90
44215;DHT22;29884;47.450;19.124;2023-05-16T00:58:47;14.20;99.90
44215;DHT22;29884;47.450;19.124;2023-05-16T01:01:14;14.30;99.90
44215;DHT22;29884;47.450;19.124;2023-05-16T01:03:41;14.20;99.90
44215;DHT22;29884;47.450;19.124;2023-05-16T01:06:10;14.20;99.90
44215;DHT22;29884;47.450;19.124;2023-05-16T01:08:36;14.20;99.90
44215;DHT22;29884;47.450;19.124;2023-05-16T01:11:14;14.30;99.90
44215;DHT22;29884;47.450;19.124;2023-05-16T01:19:13;14.20;99.90
44215;DHT22;29884;47.450;19.124;2023-05-16T01:21:58;14.30;99.90
44215;DHT22;29884;47.450;19.124;2023-05-16T01:24:47;14.20;99.90
44215;DHT22;29884;47.450;19.124;2023-05-16T01:27:19;14.30;99.90
44215;DHT22;29884;47.450;19.124;2023-05-16T01:29:45;14.20;99.90
44215;DHT22;29884;47.450;19.124;2023-05-16T01:32:11;14.20;99.90
44215;DHT22;29884;47.450;19.124;2023-05-16T01:34:38;14.20;99.90
44215;DHT22;29884;47.450;19.124;2023-05-16T01:37:08;14.10;99.90
44215;DHT22;29884;47.450;19.124;2023-05-16T01:39:41;14.10;99.90
44215;DHT22;29884;47.450;19.124;2023-05-16T01:42:13;14.10;99.90
44215;DHT22;29884;47.450;19.124;2023-05-16T01:44:45;14.10;99.90
44215;DHT22;29884;47.450;19.124;2023-05-16T01:47:16;14.10;99.90
44215;DHT22;29884;47.450;19.124;2023-05-16T01:49:57;14.00;99.90
44215;DHT22;29884;47.450;19.124;2023-05-16T01:52:34;13.90;99.90
44215;DHT22;29884;47.450;19.124;2023-05-16T01:55:01;13.80;99.90
44215;DHT22;29884;47.450;19.124;2023-05-16T01:57:28;13.80;99.90
44215;DHT22;29884;47.450;19.124;2023-05-16T01:59:54;13.80;99.90
44215;DHT22;29884;47.450;19.124;2023-05-16T02:02:20;13.70;99.90
44215;DHT22;29884;47.450;19.124;2023-05-16T02:04:46;13.70;99.90
44215;DHT22;29884;47.450;19.124;2023-05-16T02:07:12;13.70;99.90
44215;DHT22;29884;47.450;19.124;2023-05-16T02:09:40;13.70;99.90
44215;DHT22;29884;47.450;19.124;2023-05-16T02:12:06;13.70;99.90
44215;DHT22;29884;47.450;19.124;2023-05-16T02:14:32;13.70;99.90
44215;DHT22;29884;47.450;19.124;2023-05-16T02:16:58;13.70;99.90
44215;DHT22;29884;47.450;19.124;2023-05-16T02:19:24;13.70;99.90
44215;DHT22;29884;47.450;19.124;2023-05-16T02:21:49;13.80;99.90
44215;DHT22;29884;47.450;19.124;2023-05-16T02:24:15;13.70;99.90
44215;DHT22;29884;47.450;19.124;2023-05-16T02:26:41;13.70;99.90
44215;DHT22;29884;47.450;19.124;2023-05-16T02:29:07;13.70;99.90
44215;DHT22;29884;47.450;19.124;2023-05-16T02:31:33;13.60;99.90
44215;DHT22;29884;47.450;19.124;2023-05-16T02:34:01;13.60;99.90
44215;DHT22;29884;47.450;19.124;2023-05-16T02:36:27;13.50;99.90
44215;DHT22;29884;47.450;19.124;2023-05-16T02:38:53;13.60;99.90
44215;DHT22;29884;47.450;19.124;2023-05-16T02:41:19;13.60;99.90
44215;DHT22;29884;47.450;19.124;2023-05-16T02:43:47;13.50;99.90
44215;DHT22;29884;47.450;19.124;2023-05-16T02:46:29;13.50;99.90
44215;DHT22;29884;47.450;19.124;2023-05-16T02:48:56;13.50;99.90
44215;DHT22;29884;47.450;19.124;2023-05-16T02:51:23;13.50;99.90
44215;DHT22;29884;47.450;19.124;2023-05-16T02:53:50;13.50;99.90
44215;DHT22;29884;47.450;19.124;2023-05-16T02:56:16;13.50;99.90
44215;DHT22;29884;47.450;19.124;2023-05-16T02:58:45;13.50;99.90
44215;DHT22;29884;47.450;19.124;2023-05-16T03:01:11;13.40;99.90
44215;DHT22;29884;47.450;19.124;2023-05-16T03:03:36;13.40;99.90
44215;DHT22;29884;47.450;19.124;2023-05-16T03:06:02;13.40;99.90
44215;DHT22;29884;47.450;19.124;2023-05-16T03:08:28;13.40;99.90
44215;DHT22;29884;47.450;19.124;2023-05-16T03:10:54;13.40;99.90
44215;DHT22;29884;47.450;19.124;2023-05-16T03:13:19;13.40;99.90
44215;DHT22;29884;47.450;19.124;2023-05-16T03:15:46;13.40;99.90
44215;DHT22;29884;47.450;19.124;2023-05-16T03:18:11;13.40;99.90
44215;DHT22;29884;47.450;19.124;2023-05-16T03:20:37;13.30;99.90
44215;DHT22;29884;47.450;19.124;2023-05-16T03:23:03;13.30;99.90
44215;DHT22;29884;47.450;19.124;2023-05-16T03:25:35;13.30;99.90
44215;DHT22;29884;47.450;19.124;2023-05-16T03:28:10;13.40;99.90
44215;DHT22;29884;47.450;19.124;2023-05-16T03:30:35;13.30;99.90
44215;DHT22;29884;47.450;19.124;2023-05-16T03:33:01;13.30;99.90
44215;DHT22;29884;47.450;19.124;2023-05-16T03:35:29;13.30;99.90
44215;DHT22;29884;47.450;19.124;2023-05-16T03:37:55;13.30;99.90
44215;DHT22;29884;47.450;19.124;2023-05-16T03:40:20;13.30;99.90
44215;DHT22;29884;47.450;19.124;2023-05-16T03:42:46;13.30;99.90
44215;DHT22;29884;47.450;19.124;2023-05-16T03:45:12;13.20;99.90
44215;DHT22;29884;47.450;19.124;2023-05-16T03:47:38;13.20;99.90
44215;DHT22;29884;47.450;19.124;2023-05-16T03:50:04;13.20;99.90
44215;DHT22;29884;47.450;19.124;2023-05-16T03:52:30;13.20;99.90
44215;DHT22;29884;47.450;19.124;2023-05-16T03:54:56;13.20;99.90
44215;DHT22;29884;47.450;19.124;2023-05-16T03:57:22;13.20;99.90
44215;DHT22;29884;47.450;19.124;2023-05-16T03:59:47;13.20;99.90
44215;DHT22;29884;47.450;19.124;2023-05-16T04:02:13;13.20;99.90
44215;DHT22;29884;47.450;19.124;2023-05-16T04:04:39;13.30;99.90
44215;DHT22;29884;47.450;19.124;2023-05-16T04:07:05;13.30;99.90
44215;DHT22;29884;47.450;19.124;2023-05-16T04:09:31;13.30;99.90
44215;DHT22;29884;47.450;19.124;2023-05-16T04:11:57;13.30;99.90
44215;DHT22;29884;47.450;19.124;2023-05-16T04:14:26;13.30;99.90
44215;DHT22;29884;47.450;19.124;2023-05-16T04:16:52;13.30;99.90
44215;DHT22;29884;47.450;19.124;2023-05-16T04:19:17;13.30;99.90
44215;DHT22;29884;47.450;19.124;2023-05-16T04:21:43;13.30;99.90
44215;DHT22;29884;47.450;19.124;2023-05-16T04:24:09;13.40;99.90
44215;DHT22;29884;47.450;19.124;2023-05-16T04:26:35;13.40;99.90
44215;DHT22;29884;47.450;19.124;2023-05-16T04:29:04;13.40;99.90
44215;DHT22;29884;47.450;19.124;2023-05-16T04:31:30;13.40;99.90
44215;DHT22;29884;47.450;19.124;2023-05-16T04:33:56;13.40;99.90
44215;DHT22;29884;47.450;19.124;2023-05-16T04:36:22;13.50;99.90
44215;DHT22;29884;47.450;19.124;2023-05-16T04:38:48;13.50;99.90
44215;DHT22;29884;47.450;19.124;2023-05-16T04:41:14;13.50;99.90
44215;DHT22;29884;47.450;19.124;2023-05-16T04:43:43;13.60;99.90
44215;DHT22;29884;47.450;19.124;2023-05-16T04:46:08;13.60;99.90
44215;DHT22;29884;47.450;19.124;2023-05-16T04:48:34;13.60;99.90
44215;DHT22;29884;47.450;19.124;2023-05-16T04:51:00;13.60;99.90
44215;DHT22;29884;47.450;19.124;2023-05-16T04:53:26;13.60;99.90
44215;DHT22;29884;47.450;19.124;2023-05-16T04:55:52;13.60;99.90
44215;DHT22;29884;47.450;19.124;2023-05-16T04:58:17;13.60;99.90
44215;DHT22;29884;47.450;19.124;2023-05-16T05:00:43;13.60;99.90
44215;DHT22;29884;47.450;19.124;2023-05-16T05:03:09;13.60;99.90
44215;DHT22;29884;47.450;19.124;2023-05-16T05:05:35;13.70;99.90
44215;DHT22;29884;47.450;19.124;2023-05-16T05:08:00;13.70;99.90
44215;DHT22;29884;47.450;19.124;2023-05-16T05:10:26;13.70;99.90
44215;DHT22;29884;47.450;19.124;2023-05-16T05:12:52;13.70;99.90
44215;DHT22;29884;47.450;19.124;2023-05-16T05:15:18;13.80;99.90
44215;DHT22;29884;47.450;19.124;2023-05-16T05:17:44;13.80;99.90
44215;DHT22;29884;47.450;19.124;2023-05-16T05:20:11;13.80;99.90
44215;DHT22;29884;47.450;19.124;2023-05-16T05:22:36;13.80;99.90
44215;DHT22;29884;47.450;19.124;2023-05-16T05:25:03;13.80;99.90
44215;DHT22;29884;47.450;19.124;2023-05-16T05:27:29;13.80;99.90
44215;DHT22;29884;47.450;19.124;2023-05-16T05:29:55;13.90;99.90
44215;DHT22;29884;47.450;19.124;2023-05-16T05:32:21;13.90;99.90
44215;DHT22;29884;47.450;19.124;2023-05-16T05:34:47;13.90;99.90
44215;DHT22;29884;47.450;19.124;2023-05-16T05:37:13;13.90;99.90
44215;DHT22;29884;47.450;19.124;2023-05-16T05:39:38;13.90;99.90
44215;DHT22;29884;47.450;19.124;2023-05-16T05:42:05;13.90;99.90
44215;DHT22;29884;47.450;19.124;2023-05-16T05:44:30;13.90;99.90
44215;DHT22;29884;47.450;19.124;2023-05-16T05:46:56;13.90;99.90
44215;DHT22;29884;47.450;19.124;2023-05-16T05:49:24;13.90;99.90
44215;DHT22;29884;47.450;19.124;2023-05-16T05:51:49;13.90;99.90
44215;DHT22;29884;47.450;19.124;2023-05-16T05:54:20;13.90;99.90
44215;DHT22;29884;47.450;19.124;2023-05-16T05:56:46;13.90;99.90
44215;DHT22;29884;47.450;19.124;2023-05-16T05:59:12;13.90;99.90
44215;DHT22;29884;47.450;19.124;2023-05-16T06:01:37;14.00;99.90
44215;DHT22;29884;47.450;19.124;2023-05-16T06:04:04;14.00;99.90
44215;DHT22;29884;47.450;19.124;2023-05-16T06:06:30;13.90;99.90
44215;DHT22;29884;47.450;19.124;2023-05-16T06:08:57;14.00;99.90
44215;DHT22;29884;47.450;19.124;2023-05-16T06:11:23;13.90;99.90
44215;DHT22;29884;47.450;19.124;2023-05-16T06:13:53;14.00;99.90
44215;DHT22;29884;47.450;19.124;2023-05-16T06:16:18;14.00;99.90
44215;DHT22;29884;47.450;19.124;2023-05-16T06:18:44;14.00;99.90
44215;DHT22;29884;47.450;19.124;2023-05-16T06:21:10;13.90;99.90
44215;DHT22;29884;47.450;19.124;2023-05-16T06:23:36;13.90;99.90
44215;DHT22;29884;47.450;19.124;2023-05-16T06:26:02;13.90;99.90
44215;DHT22;29884;47.450;19.124;2023-05-16T06:28:28;13.90;99.90
44215;DHT22;29884;47.450;19.124;2023-05-16T06:30:54;13.90;99.90
44215;DHT22;29884;47.450;19.124;2023-05-16T06:33:20;13.90;99.90
44215;DHT22;29884;47.450;19.124;2023-05-16T06:35:46;13.90;99.90
44215;DHT22;29884;47.450;19.124;2023-05-16T06:38:15;14.00;99.90
44215;DHT22;29884;47.450;19.124;2023-05-16T06:40:40;14.00;99.90
44215;DHT22;29884;47.450;19.124;2023-05-16T06:43:06;13.90;99.90
44215;DHT22;29884;47.450;19.124;2023-05-16T06:45:32;13.90;99.90
44215;DHT22;29884;47.450;19.124;2023-05-16T06:47:58;13.90;99.90
44215;DHT22;29884;47.450;19.124;2023-05-16T06:50:24;13.90;99.90
44215;DHT22;29884;47.450;19.124;2023-05-16T06:52:49;13.90;99.90
44215;DHT22;29884;47.450;19.124;2023-05-16T06:55:15;13.90;99.90
44215;DHT22;29884;47.450;19.124;2023-05-16T06:57:41;13.80;99.90
44215;DHT22;29884;47.450;19.124;2023-05-16T07:00:07;13.80;99.90
44215;DHT22;29884;47.450;19.124;2023-05-16T07:02:33;13.90;99.90
44215;DHT22;29884;47.450;19.124;2023-05-16T07:04:59;13.90;99.90
44215;DHT22;29884;47.450;19.124;2023-05-16T07:07:24;13.90;99.90
44215;DHT22;29884;47.450;19.124;2023-05-16T07:09:50;13.90;99.90
44215;DHT22;29884;47.450;19.124;2023-05-16T07:12:16;13.90;99.90
44215;DHT22;29884;47.450;19.124;2023-05-16T07:14:41;14.00;99.90
44215;DHT22;29884;47.450;19.124;2023-05-16T07:17:08;14.00;99.90
44215;DHT22;29884;47.450;19.124;2023-05-16T07:19:34;14.00;99.90
44215;DHT22;29884;47.450;19.124;2023-05-16T07:22:00;14.00;99.90
44215;DHT22;29884;47.450;19.124;2023-05-16T07:24:26;14.10;99.90
44215;DHT22;29884;47.450;19.124;2023-05-16T07:26:51;14.00;99.90
44215;DHT22;29884;47.450;19.124;2023-05-16T07:29:17;14.10;99.90
44215;DHT22;29884;47.450;19.124;2023-05-16T07:31:43;14.20;99.90
44215;DHT22;29884;47.450;19.124;2023-05-16T07:34:10;14.20;99.90
44215;DHT22;29884;47.450;19.124;2023-05-16T07:36:37;14.20;99.90
44215;DHT22;29884;47.450;19.124;2023-05-16T07:39:03;14.20;99.90
44215;DHT22;29884;47.450;19.124;2023-05-16T07:41:29;14.20;99.90
44215;DHT22;29884;47.450;19.124;2023-05-16T07:43:55;14.30;99.90
44215;DHT22;29884;47.450;19.124;2023-05-16T07:46:21;14.30;99.90
44215;DHT22;29884;47.450;19.124;2023-05-16T07:48:47;14.30;99.90
44215;DHT22;29884;47.450;19.124;2023-05-16T07:51:12;14.40;99.90
44215;DHT22;29884;47.450;19.124;2023-05-16T07:53:38;14.40;99.90
44215;DHT22;29884;47.450;19.124;2023-05-16T07:56:04;14.40;99.90
44215;DHT22;29884;47.450;19.124;2023-05-16T07:58:32;14.40;99.90
44215;DHT22;29884;47.450;19.124;2023-05-16T08:00:58;14.50;99.90
44215;DHT22;29884;47.450;19.124;2023-05-16T08:03:24;14.50;99.90
44215;DHT22;29884;47.450;19.124;2023-05-16T08:05:49;14.60;99.90
44215;DHT22;29884;47.450;19.124;2023-05-16T08:08:16;14.60;99.90
44215;DHT22;29884;47.450;19.124;2023-05-16T08:10:42;14.60;99.90
44215;DHT22;29884;47.450;19.124;2023-05-16T08:13:08;14.70;99.90
44215;DHT22;29884;47.450;19.124;2023-05-16T08:15:34;14.70;99.90
44215;DHT22;29884;47.450;19.124;2023-05-16T08:18:00;14.80;99.90
44215;DHT22;29884;47.450;19.124;2023-05-16T08:20:26;14.80;99.90
44215;DHT22;29884;47.450;19.124;2023-05-16T08:22:52;14.80;99.90
44215;DHT22;29884;47.450;19.124;2023-05-16T08:25:18;14.80;99.90
44215;DHT22;29884;47.450;19.124;2023-05-16T08:27:45;14.80;99.90
44215;DHT22;29884;47.450;19.124;2023-05-16T08:30:11;14.80;99.90
44215;DHT22;29884;47.450;19.124;2023-05-16T08:32:37;14.80;99.90
44215;DHT22;29884;47.450;19.124;2023-05-16T08:35:03;14.80;99.90
44215;DHT22;29884;47.450;19.124;2023-05-16T08:37:29;14.80;99.90
44215;DHT22;29884;47.450;19.124;2023-05-16T08:39:55;14.80;99.90
44215;DHT22;29884;47.450;19.124;2023-05-16T08:42:21;14.80;99.90
44215;DHT22;29884;47.450;19.124;2023-05-16T08:44:46;14.80;99.90
44215;DHT22;29884;47.450;19.124;2023-05-16T08:47:18;14.80;99.90
44215;DHT22;29884;47.450;19.124;2023-05-16T08:49:48;14.80;99.90
44215;DHT22;29884;47.450;19.124;2023-05-16T08:52:18;14.80;99.90
44215;DHT22;29884;47.450;19.124;2023-05-16T08:54:45;14.80;99.90
44215;DHT22;29884;47.450;19.124;2023-05-16T08:57:11;14.80;99.90
44215;DHT22;29884;47.450;19.124;2023-05-16T08:59:38;14.80;99.90
44215;DHT22;29884;47.450;19.124;2023-05-16T09:02:05;14.80;99.90
44215;DHT22;29884;47.450;19.124;2023-05-16T09:04:31;14.80;99.90
44215;DHT22;29884;47.450;19.124;2023-05-16T09:06:56;14.80;99.90
44215;DHT22;29884;47.450;19.124;2023-05-16T09:09:23;14.80;99.90
44215;DHT22;29884;47.450;19.124;2023-05-16T09:11:49;14.80;99.90
44215;DHT22;29884;47.450;19.124;2023-05-16T09:14:15;14.80;99.90
44215;DHT22;29884;47.450;19.124;2023-05-16T09:16:40;14.80;99.90
44215;DHT22;29884;47.450;19.124;2023-05-16T09:19:06;14.80;99.90
44215;DHT22;29884;47.450;19.124;2023-05-16T09:21:37;14.80;99.90
44215;DHT22;29884;47.450;19.124;2023-05-16T09:24:04;14.80;99.90
44215;DHT22;29884;47.450;19.124;2023-05-16T09:29:51;14.90;99.90
44215;DHT22;29884;47.450;19.124;2023-05-16T09:32:17;14.90;99.90
44215;DHT22;29884;47.450;19.124;2023-05-16T09:34:47;14.90;99.90
44215;DHT22;29884;47.450;19.124;2023-05-16T09:37:22;15.00;99.90
44215;DHT22;29884;47.450;19.124;2023-05-16T09:39:50;15.00;99.90
44215;DHT22;29884;47.450;19.124;2023-05-16T09:42:18;15.00;99.90
44215;DHT22;29884;47.450;19.124;2023-05-16T09:44:52;15.00;99.90
44215;DHT22;29884;47.450;19.124;2023-05-16T09:47:20;15.00;99.90
44215;DHT22;29884;47.450;19.124;2023-05-16T09:49:47;15.00;99.90
44215;DHT22;29884;47.450;19.124;2023-05-16T09:52:16;15.00;99.90
44215;DHT22;29884;47.450;19.124;2023-05-16T09:54:43;15.00;99.90
44215;DHT22;29884;47.450;19.124;2023-05-16T09:57:10;15.00;99.90
44215;DHT22;29884;47.450;19.124;2023-05-16T09:59:39;15.00;99.90
44215;DHT22;29884;47.450;19.124;2023-05-16T10:02:06;15.00;99.90
44215;DHT22;29884;47.450;19.124;2023-05-16T10:04:35;15.00;99.90
44215;DHT22;29884;47.450;19.124;2023-05-16T10:07:04;15.00;99.90
44215;DHT22;29884;47.450;19.124;2023-05-16T10:09:32;15.00;99.90
44215;DHT22;29884;47.450;19.124;2023-05-16T10:12:00;15.00;99.90
44215;DHT22;29884;47.450;19.124;2023-05-16T10:14:33;15.00;99.90
44215;DHT22;29884;47.450;19.124;2023-05-16T10:16:59;15.00;99.90
44215;DHT22;29884;47.450;19.124;2023-05-16T10:19:25;15.00;99.90
44215;DHT22;29884;47.450;19.124;2023-05-16T10:21:57;15.00;99.90
44215;DHT22;29884;47.450;19.124;2023-05-16T10:27:17;15.00;99.90
44215;DHT22;29884;47.450;19.124;2023-05-16T10:29:43;15.00;99.90
44215;DHT22;29884;47.450;19.124;2023-05-16T10:32:09;15.00;99.90
44215;DHT22;29884;47.450;19.124;2023-05-16T10:34:36;15.00;99.90
44215;DHT22;29884;47.450;19.124;2023-05-16T10:37:04;15.00;99.90
44215;DHT22;29884;47.450;19.124;2023-05-16T10:39:31;15.10;99.90
44215;DHT22;29884;47.450;19.124;2023-05-16T10:41:57;15.10;99.90
44215;DHT22;29884;47.450;19.124;2023-05-16T10:44:24;15.00;99.90
44215;DHT22;29884;47.450;19.124;2023-05-16T10:46:50;15.10;99.90
44215;DHT22;29884;47.450;19.124;2023-05-16T10:49:23;15.10;99.90
44215;DHT22;29884;47.450;19.124;2023-05-16T10:52:11;15.10;99.90
44215;DHT22;29884;47.450;19.124;2023-05-16T10:54:49;15.10;99.90
44215;DHT22;29884;47.450;19.124;2023-05-16T10:57:21;15.10;99.90
44215;DHT22;29884;47.450;19.124;2023-05-16T10:59:49;15.20;99.90
44215;DHT22;29884;47.450;19.124;2023-05-16T11:02:27;15.20;99.90
44215;DHT22;29884;47.450;19.124;2023-05-16T11:04:55;15.10;99.90
44215;DHT22;29884;47.450;19.124;2023-05-16T11:07:23;15.20;99.90
44215;DHT22;29884;47.450;19.124;2023-05-16T11:12:49;15.20;99.90
44215;DHT22;29884;47.450;19.124;2023-05-16T11:15:25;15.20;99.90
44215;DHT22;29884;47.450;19.124;2023-05-16T11:18:15;15.30;99.90
44215;DHT22;29884;47.450;19.124;2023-05-16T11:20:41;15.40;99.90
44215;DHT22;29884;47.450;19.124;2023-05-16T11:23:18;15.40;99.90
44215;DHT22;29884;47.450;19.124;2023-05-16T11:25:53;15.50;99.90
44215;DHT22;29884;47.450;19.124;2023-05-16T11:28:20;15.50;99.90
44215;DHT22;29884;47.450;19.124;2023-05-16T11:30:56;15.50;99.90
44215;DHT22;29884;47.450;19.124;2023-05-16T11:33:24;15.60;99.90
44215;DHT22;29884;47.450;19.124;2023-05-16T11:36:06;15.60;99.90
44215;DHT22;29884;47.450;19.124;2023-05-16T11:38:33;15.60;99.90
44215;DHT22;29884;47.450;19.124;2023-05-16T11:41:06;15.60;99.90
44215;DHT22;29884;47.450;19.124;2023-05-16T11:43:40;15.50;99.90
44215;DHT22;29884;47.450;19.124;2023-05-16T11:46:06;15.60;99.90
44215;DHT22;29884;47.450;19.124;2023-05-16T11:48:32;15.60;99.90
44215;DHT22;29884;47.450;19.124;2023-05-16T11:50:59;15.60;99.90
44215;DHT22;29884;47.450;19.124;2023-05-16T11:53:26;15.60;99.90
44215;DHT22;29884;47.450;19.124;2023-05-16T11:55:52;15.60;99.90
44215;DHT22;29884;47.450;19.124;2023-05-16T11:58:19;15.70;99.90
44215;DHT22;29884;47.450;19.124;2023-05-16T12:00:49;15.70;99.90
44215;DHT22;29884;47.450;19.124;2023-05-16T12:03:17;15.80;99.90
44215;DHT22;29884;47.450;19.124;2023-05-16T12:05:50;15.80;99.90
44215;DHT22;29884;47.450;19.124;2023-05-16T12:08:17;15.90;99.90
44215;DHT22;29884;47.450;19.124;2023-05-16T12:10:43;15.90;99.90
44215;DHT22;29884;47.450;19.124;2023-05-16T12:13:09;15.80;99.90
44215;DHT22;29884;47.450;19.124;2023-05-16T12:15:35;15.90;99.90
44215;DHT22;29884;47.450;19.124;2023-05-16T12:18:01;15.90;99.90
44215;DHT22;29884;47.450;19.124;2023-05-16T12:20:27;15.90;99.90
44215;DHT22;29884;47.450;19.124;2023-05-16T12:22:56;15.90;99.90
44215;DHT22;29884;47.450;19.124;2023-05-16T12:25:33;15.90;99.90
44215;DHT22;29884;47.450;19.124;2023-05-16T12:28:03;16.00;99.90
44215;DHT22;29884;47.450;19.124;2023-05-16T12:30:30;15.90;99.90
44215;DHT22;29884;47.450;19.124;2023-05-16T12:32:57;15.90;99.90
44215;DHT22;29884;47.450;19.124;2023-05-16T12:35:30;16.00;99.90
44215;DHT22;29884;47.450;19.124;2023-05-16T12:37:56;16.00;99.90
44215;DHT22;29884;47.450;19.124;2023-05-16T12:40:22;16.00;99.90
44215;DHT22;29884;47.450;19.124;2023-05-16T12:42:52;16.00;99.90
44215;DHT22;29884;47.450;19.124;2023-05-16T12:45:17;16.00;99.90
44215;DHT22;29884;47.450;19.124;2023-05-16T12:47:44;16.00;99.90
44215;DHT22;29884;47.450;19.124;2023-05-16T12:50:14;16.10;99.90
44215;DHT22;29884;47.450;19.124;2023-05-16T12:52:58;16.10;99.90
44215;DHT22;29884;47.450;19.124;2023-05-16T12:55:24;16.10;99.90
44215;DHT22;29884;47.450;19.124;2023-05-16T12:57:51;16.10;99.90
44215;DHT22;29884;47.450;19.124;2023-05-16T13:00:20;16.10;99.90
44215;DHT22;29884;47.450;19.124;2023-05-16T13:02:46;16.20;99.90
44215;DHT22;29884;47.450;19.124;2023-05-16T13:05:13;16.20;99.90
44215;DHT22;29884;47.450;19.124;2023-05-16T13:07:39;16.20;99.90
44215;DHT22;29884;47.450;19.124;2023-05-16T13:10:10;16.20;99.90
44215;DHT22;29884;47.450;19.124;2023-05-16T13:12:36;16.20;99.90
44215;DHT22;29884;47.450;19.124;2023-05-16T13:15:03;16.20;99.90
44215;DHT22;29884;47.450;19.124;2023-05-16T13:17:29;16.20;99.90
44215;DHT22;29884;47.450;19.124;2023-05-16T13:19:55;16.20;99.90
44215;DHT22;29884;47.450;19.124;2023-05-16T13:22:21;16.20;99.90
44215;DHT22;29884;47.450;19.124;2023-05-16T13:24:46;16.20;99.90
44215;DHT22;29884;47.450;19.124;2023-05-16T13:27:15;16.30;99.90
44215;DHT22;29884;47.450;19.124;2023-05-16T13:29:42;16.30;99.90
44215;DHT22;29884;47.450;19.124;2023-05-16T13:32:08;16.30;99.90
44215;DHT22;29884;47.450;19.124;2023-05-16T13:34:34;16.40;99.90
44215;DHT22;29884;47.450;19.124;2023-05-16T13:37:00;16.40;99.90
44215;DHT22;29884;47.450;19.124;2023-05-16T13:39:26;16.40;99.90
44215;DHT22;29884;47.450;19.124;2023-05-16T13:41:51;16.50;99.90
44215;DHT22;29884;47.450;19.124;2023-05-16T13:44:18;16.50;99.90
44215;DHT22;29884;47.450;19.124;2023-05-16T13:46:44;16.50;99.90
44215;DHT22;29884;47.450;19.124;2023-05-16T13:49:10;16.60;99.90
44215;DHT22;29884;47.450;19.124;2023-05-16T13:51:36;16.60;99.90
44215;DHT22;29884;47.450;19.124;2023-05-16T13:54:02;16.70;99.90
44215;DHT22;29884;47.450;19.124;2023-05-16T13:56:28;16.70;99.90
44215;DHT22;29884;47.450;19.124;2023-05-16T13:58:53;16.70;99.90
44215;DHT22;29884;47.450;19.124;2023-05-16T14:01:19;16.80;99.90
44215;DHT22;29884;47.450;19.124;2023-05-16T14:03:46;16.70;99.90
44215;DHT22;29884;47.450;19.124;2023-05-16T14:06:12;16.80;99.90
44215;DHT22;29884;47.450;19.124;2023-05-16T14:08:37;16.80;99.90
44215;DHT22;29884;47.450;19.124;2023-05-16T14:11:04;16.80;99.90
44215;DHT22;29884;47.450;19.124;2023-05-16T14:13:30;16.80;99.90
44215;DHT22;29884;47.450;19.124;2023-05-16T14:15:56;16.80;99.90
44215;DHT22;29884;47.450;19.124;2023-05-16T14:18:22;16.70;99.90
44215;DHT22;29884;47.450;19.124;2023-05-16T14:20:47;16.70;99.90
44215;DHT22;29884;47.450;19.124;2023-05-16T14:23:15;16.70;99.90
44215;DHT22;29884;47.450;19.124;2023-05-16T14:25:41;16.70;99.90
44215;DHT22;29884;47.450;19.124;2023-05-16T14:28:07;16.70;99.90
44215;DHT22;29884;47.450;19.124;2023-05-16T14:30:32;16.70;99.90
44215;DHT22;29884;47.450;19.124;2023-05-16T14:32:58;16.80;99.90
44215;DHT22;29884;47.450;19.124;2023-05-16T14:35:24;16.80;99.90
44215;DHT22;29884;47.450;19.124;2023-05-16T14:37:50;16.80;99.90
44215;DHT22;29884;47.450;19.124;2023-05-16T14:40:16;16.70;99.90
44215;DHT22;29884;47.450;19.124;2023-05-16T14:42:42;16.60;99.90
44215;DHT22;29884;47.450;19.124;2023-05-16T14:45:08;16.60;99.90
44215;DHT22;29884;47.450;19.124;2023-05-16T14:47:33;16.60;99.90
44215;DHT22;29884;47.450;19.124;2023-05-16T14:49:59;16.50;99.90
44215;DHT22;29884;47.450;19.124;2023-05-16T14:52:25;16.50;99.90
44215;DHT22;29884;47.450;19.124;2023-05-16T14:54:53;16.40;99.90
44215;DHT22;29884;47.450;19.124;2023-05-16T14:57:18;16.30;99.90
44215;DHT22;29884;47.450;19.124;2023-05-16T14:59:44;16.40;99.90
44215;DHT22;29884;47.450;19.124;2023-05-16T15:02:11;16.30;99.90
44215;DHT22;29884;47.450;19.124;2023-05-16T15:04:36;16.30;99.90
44215;DHT22;29884;47.450;19.124;2023-05-16T15:07:02;16.30;99.90
44215;DHT22;29884;47.450;19.124;2023-05-16T15:09:28;16.30;99.90
44215;DHT22;29884;47.450;19.124;2023-05-16T15:11:54;16.30;99.90
44215;DHT22;29884;47.450;19.124;2023-05-16T15:14:19;16.20;99.90
44215;DHT22;29884;47.450;19.124;2023-05-16T15:16:45;16.30;99.90
44215;DHT22;29884;47.450;19.124;2023-05-16T15:19:12;16.20;99.90
44215;DHT22;29884;47.450;19.124;2023-05-16T15:21:37;16.30;99.90
44215;DHT22;29884;47.450;19.124;2023-05-16T15:24:03;16.30;99.90
44215;DHT22;29884;47.450;19.124;2023-05-16T15:26:29;16.30;99.90
44215;DHT22;29884;47.450;19.124;2023-05-16T15:28:55;16.20;99.90